createdAt,value
2019-05-17T00:01:57.778Z,7.60
2019-05-17T00:04:26.836Z,6.70
2019-05-17T00:06:53.012Z,6.60
2019-05-17T00:09:19.766Z,6.60
2019-05-17T00:11:47.311Z,7.80
2019-05-17T00:14:16.734Z,6.60
2019-05-17T00:16:43.507Z,6.40
2019-05-17T00:19:10.068Z,6.50
2019-05-17T00:21:37.053Z,6.40
2019-05-17T00:24:03.855Z,6.40
2019-05-17T00:26:30.351Z,6.60
2019-05-17T00:28:56.912Z,6.40
2019-05-17T00:31:23.396Z,6.30
2019-05-17T00:33:49.817Z,6.30
2019-05-17T00:36:17.791Z,6.40
2019-05-17T00:38:50.674Z,6.20
2019-05-17T00:41:12.992Z,6.80
2019-05-17T00:43:39.395Z,7.20
2019-05-17T00:46:06.715Z,6.20
2019-05-17T00:48:33.390Z,6.10
2019-05-17T00:51:01.983Z,6.20
2019-05-17T00:53:28.206Z,6.20
2019-05-17T00:55:55.258Z,6.10
2019-05-17T00:58:23.145Z,6.30
2019-05-17T01:00:49.733Z,6.00
2019-05-17T01:03:16.331Z,6.20
2019-05-17T01:05:43.219Z,6.50
2019-05-17T01:08:09.613Z,5.90
2019-05-17T01:10:36.838Z,5.80
2019-05-17T01:13:03.735Z,6.10
2019-05-17T01:15:30.125Z,5.70
2019-05-17T01:17:56.509Z,6.70
2019-05-17T01:20:23.016Z,5.70
2019-05-17T01:22:49.559Z,5.60
2019-05-17T01:25:17.179Z,5.60
2019-05-17T01:27:43.982Z,5.60
2019-05-17T01:30:12.728Z,5.50
2019-05-17T01:32:40.090Z,5.40
2019-05-17T01:35:07.210Z,5.50
2019-05-17T01:37:33.965Z,5.80
2019-05-17T01:40:00.373Z,5.40
2019-05-17T01:42:27.091Z,6.50
2019-05-17T01:44:53.558Z,5.30
2019-05-17T01:47:19.994Z,5.20
2019-05-17T01:49:46.989Z,5.20
2019-05-17T01:52:13.845Z,5.20
2019-05-17T01:54:40.370Z,5.20
2019-05-17T01:57:07.301Z,5.90
2019-05-17T01:59:34.099Z,5.10
2019-05-17T02:02:02.410Z,5.10
2019-05-17T02:04:29.810Z,5.00
2019-05-17T02:06:57.392Z,5.90
2019-05-17T02:09:34.882Z,5.00
2019-05-17T02:11:52.480Z,4.90
2019-05-17T02:14:18.849Z,4.90
2019-05-17T02:16:46.845Z,4.90
2019-05-17T02:19:13.744Z,4.90
2019-05-17T02:21:40.320Z,6.30
2019-05-17T02:24:07.997Z,4.70
2019-05-17T02:26:37.277Z,4.70
2019-05-17T02:29:03.136Z,4.70
2019-05-17T02:31:32.764Z,4.90
2019-05-17T02:33:58.556Z,4.60
2019-05-17T02:36:25.078Z,4.60
2019-05-17T02:38:53.205Z,4.50
2019-05-17T02:41:22.494Z,5.50
2019-05-17T02:43:48.085Z,4.50
2019-05-17T02:46:14.585Z,4.80
2019-05-17T02:48:42.764Z,4.50
2019-05-17T02:51:13.117Z,4.40
2019-05-17T02:53:38.989Z,4.40
2019-05-17T02:56:05.575Z,4.40
2019-05-17T02:58:33.058Z,4.30
2019-05-17T03:01:03.282Z,4.30
2019-05-17T03:03:28.262Z,4.30
2019-05-17T03:05:54.856Z,4.30
2019-05-17T03:08:23.528Z,4.20
2019-05-17T03:10:53.149Z,4.20
2019-05-17T03:13:18.291Z,5.20
2019-05-17T03:15:45.745Z,4.20
2019-05-17T03:18:13.426Z,4.20
2019-05-17T03:20:42.919Z,4.20
2019-05-17T03:23:08.566Z,4.90
2019-05-17T03:25:35.150Z,4.10
2019-05-17T03:28:03.125Z,4.10
2019-05-17T03:30:35.547Z,4.10
2019-05-17T03:32:58.674Z,4.10
2019-05-17T03:35:26.966Z,4.10
2019-05-17T03:37:53.802Z,4.10
2019-05-17T03:40:47.358Z,4.00
2019-05-17T03:42:48.837Z,4.00
2019-05-17T03:45:15.437Z,3.90
2019-05-17T03:47:44.461Z,4.80
2019-05-17T03:50:13.390Z,4.00
2019-05-17T03:52:39.799Z,4.00
2019-05-17T03:55:06.532Z,4.00
2019-05-17T03:57:33.132Z,4.00
2019-05-17T04:00:03.516Z,4.10
2019-05-17T04:02:28.269Z,4.10
2019-05-17T04:04:54.915Z,4.10
2019-05-17T04:07:23.612Z,4.10
2019-05-17T04:09:53.201Z,4.20
2019-05-17T04:12:18.675Z,5.60
2019-05-17T04:14:45.087Z,4.30
2019-05-17T04:17:13.156Z,4.40
2019-05-17T04:19:42.594Z,4.50
2019-05-17T04:22:08.423Z,4.50
2019-05-17T04:24:34.914Z,4.60
2019-05-17T04:27:03.713Z,5.30
2019-05-17T04:29:32.869Z,4.70
2019-05-17T04:31:57.970Z,4.70
2019-05-17T04:34:24.543Z,4.90
2019-05-17T04:36:52.265Z,5.00
2019-05-17T04:39:22.396Z,5.10
2019-05-17T04:41:51.106Z,5.20
2019-05-17T04:44:16.164Z,5.30
2019-05-17T04:46:43.315Z,5.60
2019-05-17T04:49:13.496Z,5.60
2019-05-17T04:51:38.375Z,5.70
2019-05-17T04:54:05.062Z,5.90
2019-05-17T04:56:33.358Z,6.10
2019-05-17T04:59:03.343Z,6.40
2019-05-17T05:01:28.732Z,7.10
2019-05-17T05:03:55.223Z,7.90
2019-05-17T05:06:23.380Z,8.50
2019-05-17T05:08:52.711Z,9.10
2019-05-17T05:11:18.415Z,9.90
2019-05-17T05:13:44.997Z,10.60
2019-05-17T05:16:13.423Z,11.20
2019-05-17T05:18:42.104Z,11.80
2019-05-17T05:21:08.519Z,12.40
2019-05-17T05:23:34.917Z,12.90
2019-05-17T05:26:03.070Z,13.40
2019-05-17T05:28:31.712Z,13.70
2019-05-17T05:30:58.241Z,13.90
2019-05-17T05:33:24.725Z,14.20
2019-05-17T05:35:51.687Z,14.00
2019-05-17T05:38:18.337Z,14.20
2019-05-17T05:40:44.760Z,14.50
2019-05-17T05:43:11.982Z,15.00
2019-05-17T05:45:38.851Z,15.20
2019-05-17T05:48:05.347Z,15.50
2019-05-17T05:50:32.386Z,15.30
2019-05-17T05:52:58.994Z,15.80
2019-05-17T05:55:25.405Z,16.10
2019-05-17T05:57:52.284Z,15.80
2019-05-17T06:00:19.041Z,15.30
2019-05-17T06:02:45.555Z,16.20
2019-05-17T06:05:16.396Z,16.10
2019-05-17T06:07:41.797Z,16.40
2019-05-17T06:10:23.781Z,16.50
2019-05-17T06:12:51.762Z,16.50
2019-05-17T06:15:18.595Z,16.30
2019-05-17T06:17:45.124Z,16.60
2019-05-17T06:20:12.815Z,16.40
2019-05-17T06:22:39.316Z,16.50
2019-05-17T06:25:05.923Z,16.20
2019-05-17T06:27:32.443Z,15.90
2019-05-17T06:30:01.354Z,15.90
2019-05-17T06:32:27.419Z,15.50
2019-05-17T06:34:53.944Z,15.40
2019-05-17T06:37:22.383Z,15.50
2019-05-17T06:40:09.600Z,15.90
2019-05-17T06:42:41.166Z,16.40
2019-05-17T06:45:05.644Z,16.60
2019-05-17T06:47:32.842Z,16.60
2019-05-17T06:49:59.533Z,17.20
2019-05-17T06:52:25.937Z,17.60
2019-05-17T06:54:52.580Z,17.80
2019-05-17T06:57:19.058Z,18.10
2019-05-17T06:59:45.446Z,18.00
2019-05-17T07:02:11.868Z,18.40
2019-05-17T07:04:39.515Z,19.00
2019-05-17T07:07:25.094Z,19.00
2019-05-17T07:09:51.474Z,19.30
2019-05-17T07:12:20.230Z,19.30
2019-05-17T07:14:46.319Z,20.10
2019-05-17T07:17:12.746Z,20.00
2019-05-17T07:19:40.062Z,20.10
2019-05-17T07:22:06.718Z,19.90
2019-05-17T07:24:33.145Z,20.30
2019-05-17T07:26:59.546Z,20.70
2019-05-17T07:29:26.050Z,21.30
2019-05-17T07:31:52.470Z,21.30
2019-05-17T07:34:19.949Z,21.70
2019-05-17T07:36:46.580Z,22.00
2019-05-17T07:39:13.004Z,22.50
2019-05-17T07:41:40.072Z,22.30
2019-05-17T07:44:06.898Z,21.80
2019-05-17T07:46:33.299Z,21.90
2019-05-17T07:49:00.350Z,22.60
2019-05-17T07:51:27.046Z,22.10
2019-05-17T07:53:53.550Z,22.00
2019-05-17T07:56:20.109Z,22.30
2019-05-17T07:58:46.569Z,22.70
2019-05-17T08:01:13.188Z,23.00
2019-05-17T08:03:40.627Z,22.90
2019-05-17T08:06:07.499Z,22.40
2019-05-17T08:08:34.093Z,22.20
2019-05-17T08:11:00.644Z,22.30
2019-05-17T08:13:31.392Z,22.40
2019-05-17T08:15:55.669Z,22.30
2019-05-17T08:18:22.177Z,23.20
2019-05-17T08:20:50.150Z,23.30
2019-05-17T08:23:19.874Z,23.30
2019-05-17T08:25:52.838Z,22.70
2019-05-17T08:28:14.541Z,22.80
2019-05-17T08:30:41.363Z,23.50
2019-05-17T08:33:10.874Z,23.90
2019-05-17T08:35:36.835Z,23.40
2019-05-17T08:38:03.332Z,23.60
2019-05-17T08:40:30.571Z,23.50
2019-05-17T08:42:57.213Z,23.70
2019-05-17T08:45:23.627Z,23.90
2019-05-17T08:47:50.172Z,24.40
2019-05-17T08:50:16.951Z,24.10
2019-05-17T08:52:43.633Z,23.90
2019-05-17T08:55:10.393Z,23.90
2019-05-17T08:57:39.652Z,24.20
2019-05-17T09:00:06.505Z,23.70
2019-05-17T09:02:33.001Z,24.60
2019-05-17T09:05:00.487Z,24.70
2019-05-17T09:07:29.390Z,24.60
2019-05-17T09:09:55.455Z,24.30
2019-05-17T09:12:21.871Z,24.20
2019-05-17T09:14:49.597Z,24.70
2019-05-17T09:17:16.435Z,24.80
2019-05-17T09:19:42.860Z,25.30
2019-05-17T09:22:10.452Z,25.50
2019-05-17T09:24:39.514Z,25.40
2019-05-17T09:27:07.381Z,25.10
2019-05-17T09:29:33.887Z,25.50
2019-05-17T09:32:00.308Z,25.50
2019-05-17T09:34:26.715Z,25.60
2019-05-17T09:36:53.185Z,25.20
2019-05-17T09:39:20.055Z,24.90
2019-05-17T09:41:46.709Z,24.30
2019-05-17T09:44:16.455Z,25.00
2019-05-17T09:46:41.658Z,25.50
2019-05-17T09:49:10.404Z,25.70
2019-05-17T09:51:36.799Z,25.90
2019-05-17T09:54:03.376Z,25.10
2019-05-17T09:56:30.830Z,25.20
2019-05-17T09:58:57.451Z,25.90
2019-05-17T10:01:24.042Z,25.90
2019-05-17T10:03:50.814Z,25.30
2019-05-17T10:06:19.879Z,25.20
2019-05-17T10:08:45.778Z,25.10
2019-05-17T10:11:12.410Z,25.40
2019-05-17T10:13:38.988Z,25.30
2019-05-17T10:16:05.531Z,25.90
2019-05-17T10:18:31.913Z,25.30
2019-05-17T10:20:59.812Z,25.60
2019-05-17T10:23:26.746Z,25.20
2019-05-17T10:25:53.139Z,25.30
2019-05-17T10:28:20.501Z,25.20
2019-05-17T10:30:51.932Z,25.80
2019-05-17T10:33:16.789Z,25.90
2019-05-17T10:35:43.212Z,26.20
2019-05-17T10:38:10.701Z,26.50
2019-05-17T10:40:37.630Z,26.60
2019-05-17T10:43:04.174Z,26.10
2019-05-17T10:45:30.770Z,25.60
2019-05-17T10:47:57.225Z,25.80
2019-05-17T10:50:23.645Z,26.40
2019-05-17T10:52:50.072Z,26.50
2019-05-17T10:55:16.741Z,26.50
2019-05-17T10:57:43.175Z,26.10
2019-05-17T11:00:10.332Z,26.50
2019-05-17T11:02:37.102Z,26.50
2019-05-17T11:05:05.526Z,25.70
2019-05-17T11:07:31.940Z,25.90
2019-05-17T11:10:00.314Z,26.30
2019-05-17T11:12:26.799Z,26.20
2019-05-17T11:15:09.661Z,26.00
2019-05-17T11:17:21.518Z,26.00
2019-05-17T11:19:48.025Z,25.90
2019-05-17T11:22:14.982Z,25.70
2019-05-17T11:24:41.768Z,25.30
2019-05-17T11:27:08.242Z,25.30
2019-05-17T11:29:34.669Z,25.40
2019-05-17T11:32:01.079Z,25.90
2019-05-17T11:34:27.693Z,26.20
2019-05-17T11:36:54.199Z,25.70
2019-05-17T11:39:20.859Z,26.10
2019-05-17T11:41:47.230Z,26.10
2019-05-17T11:44:14.740Z,25.80
2019-05-17T11:46:41.126Z,25.60
2019-05-17T11:49:07.543Z,25.80
2019-05-17T11:51:34.167Z,25.80
2019-05-17T11:54:00.607Z,25.90
2019-05-17T11:56:27.187Z,25.30
2019-05-17T11:58:53.679Z,24.90
2019-05-17T12:01:20.122Z,24.40
2019-05-17T12:03:46.544Z,23.70
2019-05-17T12:06:13.075Z,23.40
2019-05-17T12:08:39.459Z,24.10
2019-05-17T12:11:05.953Z,24.40
2019-05-17T12:13:32.343Z,24.00
2019-05-17T12:15:59.233Z,23.00
2019-05-17T12:18:25.906Z,22.40
2019-05-17T12:20:52.298Z,22.50
2019-05-17T12:23:18.679Z,22.90
2019-05-17T12:25:45.305Z,23.50
2019-05-17T12:28:12.897Z,23.10
2019-05-17T12:30:39.291Z,22.60
2019-05-17T12:33:06.047Z,22.70
2019-05-17T12:35:32.517Z,22.80
2019-05-17T12:37:58.944Z,22.80
2019-05-17T12:40:25.552Z,22.90
2019-05-17T12:42:52.052Z,23.50
2019-05-17T12:45:18.584Z,23.70
2019-05-17T12:47:44.977Z,23.70
2019-05-17T12:50:11.787Z,24.00
2019-05-17T12:52:38.239Z,23.50
2019-05-17T12:55:05.708Z,23.00
2019-05-17T12:57:32.224Z,23.20
2019-05-17T12:59:58.917Z,23.10
2019-05-17T13:02:25.331Z,23.10
2019-05-17T13:04:51.705Z,22.90
2019-05-17T13:07:18.110Z,22.60
2019-05-17T13:09:44.508Z,22.40
2019-05-17T13:12:11.999Z,22.50
2019-05-17T13:14:38.401Z,22.30
2019-05-17T13:17:05.101Z,21.30
2019-05-17T13:19:31.585Z,21.70
2019-05-17T13:21:58.627Z,21.70
2019-05-17T13:24:25.049Z,21.80
2019-05-17T13:26:51.581Z,22.10
2019-05-17T13:29:18.146Z,22.40
2019-05-17T13:31:53.529Z,22.30
2019-05-17T13:34:20.208Z,22.50
2019-05-17T13:36:46.619Z,22.40
2019-05-17T13:39:13.134Z,22.20
2019-05-17T13:41:39.642Z,22.00
2019-05-17T13:44:06.121Z,22.00
2019-05-17T13:46:33.623Z,22.30
2019-05-17T13:49:00.758Z,22.60
2019-05-17T13:51:28.367Z,22.70
2019-05-17T13:53:55.012Z,22.70
2019-05-17T13:56:21.552Z,22.70
2019-05-17T13:58:47.949Z,22.90
2019-05-17T14:01:14.311Z,22.80
2019-05-17T14:03:40.785Z,22.70
2019-05-17T14:06:07.170Z,22.60
2019-05-17T14:08:33.674Z,22.70
2019-05-17T14:11:00.083Z,23.00
2019-05-17T14:13:26.633Z,22.70
2019-05-17T14:15:53.288Z,22.70
2019-05-17T14:18:19.900Z,22.80
2019-05-17T14:20:46.408Z,22.70
2019-05-17T14:23:13.105Z,22.50
2019-05-17T14:25:39.633Z,22.40
2019-05-17T14:28:06.148Z,22.20
2019-05-17T14:30:32.671Z,21.90
2019-05-17T14:32:59.281Z,21.60
2019-05-17T14:35:25.869Z,21.60
2019-05-17T14:37:53.388Z,21.50
2019-05-17T14:40:20.022Z,21.60
2019-05-17T14:42:46.416Z,21.90
2019-05-17T14:45:13.404Z,22.10
2019-05-17T14:47:39.925Z,21.90
2019-05-17T14:50:07.771Z,21.70
2019-05-17T14:52:34.313Z,21.70
2019-05-17T14:55:00.786Z,21.70
2019-05-17T14:57:27.200Z,21.70
2019-05-17T14:59:53.699Z,21.90
2019-05-17T15:02:20.139Z,22.00
2019-05-17T15:04:46.634Z,22.00
2019-05-17T15:07:13.015Z,22.10
2019-05-17T15:09:39.646Z,21.90
2019-05-17T15:12:06.212Z,21.70
2019-05-17T15:14:32.626Z,21.50
2019-05-17T15:16:59.093Z,21.30
2019-05-17T15:19:25.612Z,21.20
2019-05-17T15:21:52.023Z,21.20
2019-05-17T15:24:18.564Z,21.10
2019-05-17T15:26:44.974Z,21.00
2019-05-17T15:29:11.522Z,20.90
2019-05-17T15:31:38.101Z,20.90
2019-05-17T15:34:04.629Z,20.90
2019-05-17T15:36:31.021Z,21.00
2019-05-17T15:38:57.677Z,21.00
2019-05-17T15:41:24.190Z,21.00
2019-05-17T15:43:50.741Z,21.00
2019-05-17T15:46:35.820Z,20.90
2019-05-17T15:49:02.321Z,20.70
2019-05-17T15:51:28.924Z,20.70
2019-05-17T15:53:55.618Z,20.80
2019-05-17T15:56:22.195Z,21.00
2019-05-17T15:58:48.714Z,20.90
2019-05-17T16:01:15.380Z,20.70
2019-05-17T16:03:41.781Z,20.60
2019-05-17T16:06:08.304Z,20.60
2019-05-17T16:08:34.716Z,20.50
2019-05-17T16:11:01.231Z,20.50
2019-05-17T16:13:27.631Z,20.50
2019-05-17T16:15:54.052Z,20.60
2019-05-17T16:18:20.442Z,20.60
2019-05-17T16:20:46.866Z,20.50
2019-05-17T16:23:13.391Z,20.50
2019-05-17T16:25:39.880Z,20.40
2019-05-17T16:28:06.481Z,20.40
2019-05-17T16:30:33.022Z,20.50
2019-05-17T16:32:59.714Z,20.50
2019-05-17T16:35:26.117Z,20.40
2019-05-17T16:37:52.552Z,20.40
2019-05-17T16:40:21.828Z,20.20
2019-05-17T16:42:48.274Z,20.10
2019-05-17T16:45:17.442Z,20.00
2019-05-17T16:47:43.865Z,20.00
2019-05-17T16:50:10.859Z,19.90
2019-05-17T16:52:37.376Z,19.80
2019-05-17T16:55:04.700Z,19.80
2019-05-17T16:57:31.204Z,19.00
2019-05-17T16:59:57.827Z,19.50
2019-05-17T17:02:24.295Z,19.50
2019-05-17T17:04:50.940Z,19.40
2019-05-17T17:07:17.456Z,19.40
2019-05-17T17:09:43.842Z,19.50
2019-05-17T17:12:10.363Z,19.40
2019-05-17T17:14:36.744Z,19.30
2019-05-17T17:17:10.315Z,19.20
2019-05-17T17:19:31.837Z,19.10
2019-05-17T17:21:58.593Z,19.00
2019-05-17T17:24:25.073Z,19.00
2019-05-17T17:26:51.542Z,18.90
2019-05-17T17:29:18.126Z,19.00
2019-05-17T17:31:45.663Z,18.80
2019-05-17T17:34:12.246Z,18.80
2019-05-17T17:36:38.724Z,18.70
2019-05-17T17:39:06.889Z,18.60
2019-05-17T17:41:33.350Z,18.60
2019-05-17T17:44:00.154Z,18.50
2019-05-17T17:46:27.349Z,18.40
2019-05-17T17:48:53.773Z,18.40
2019-05-17T17:51:20.449Z,18.30
2019-05-17T17:53:46.857Z,18.20
2019-05-17T17:56:13.805Z,18.10
2019-05-17T17:58:40.489Z,18.10
2019-05-17T18:01:06.945Z,18.00
2019-05-17T18:03:33.463Z,17.90
2019-05-17T18:06:00.061Z,17.90
2019-05-17T18:08:26.592Z,17.80
2019-05-17T18:10:53.125Z,17.70
2019-05-17T18:13:19.521Z,17.60
2019-05-17T18:15:46.110Z,17.50
2019-05-17T18:18:13.882Z,17.40
2019-05-17T18:20:40.595Z,17.30
2019-05-17T18:23:07.548Z,17.30
2019-05-17T18:25:34.228Z,17.30
2019-05-17T18:28:01.223Z,17.10
2019-05-17T18:30:27.805Z,17.90
2019-05-17T18:32:54.299Z,16.90
2019-05-17T18:35:20.762Z,16.90
2019-05-17T18:37:47.287Z,16.80
2019-05-17T18:40:13.909Z,16.70
2019-05-17T18:42:40.362Z,16.60
2019-05-17T18:45:07.431Z,16.50
2019-05-17T18:47:34.244Z,16.40
2019-05-17T18:50:00.828Z,16.30
2019-05-17T18:52:28.468Z,16.30
2019-05-17T18:54:55.002Z,16.10
2019-05-17T18:57:21.558Z,16.00
2019-05-17T18:59:47.940Z,15.90
2019-05-17T19:02:14.353Z,15.80
2019-05-17T19:04:40.751Z,15.60
2019-05-17T19:07:07.308Z,15.50
2019-05-17T19:09:33.930Z,15.40
2019-05-17T19:12:00.326Z,15.30
2019-05-17T19:14:26.881Z,15.20
2019-05-17T19:16:53.284Z,15.10
2019-05-17T19:19:19.741Z,15.10
2019-05-17T19:21:46.308Z,15.00
2019-05-17T19:24:12.799Z,15.30
2019-05-17T19:26:39.217Z,14.80
2019-05-17T19:29:05.726Z,14.70
2019-05-17T19:31:32.302Z,14.70
2019-05-17T19:33:58.787Z,14.70
2019-05-17T19:36:25.183Z,14.60
2019-05-17T19:38:51.610Z,14.50
2019-05-17T19:41:18.114Z,14.50
2019-05-17T19:43:44.738Z,14.50
2019-05-17T19:46:11.225Z,14.50
2019-05-17T19:48:37.735Z,14.40
2019-05-17T19:51:04.164Z,14.40
2019-05-17T19:53:30.701Z,14.30
2019-05-17T19:55:57.212Z,14.30
2019-05-17T19:58:23.815Z,14.30
2019-05-17T20:00:50.361Z,14.20
2019-05-17T20:03:16.892Z,14.20
2019-05-17T20:05:44.399Z,14.10
2019-05-17T20:08:10.969Z,14.10
2019-05-17T20:10:37.417Z,14.10
2019-05-17T20:13:04.211Z,14.10
2019-05-17T20:15:34.667Z,14.00
2019-05-17T20:17:59.433Z,14.00
2019-05-17T20:20:26.157Z,13.90
2019-05-17T20:22:52.750Z,13.80
2019-05-17T20:25:21.166Z,13.80
2019-05-17T20:27:47.772Z,13.70
2019-05-17T20:30:14.780Z,13.60
2019-05-17T20:32:41.281Z,13.50
2019-05-17T20:35:08.578Z,13.40
2019-05-17T20:37:35.159Z,13.30
2019-05-17T20:40:03.650Z,13.20
2019-05-17T20:42:30.057Z,13.20
2019-05-17T20:44:56.472Z,13.10
2019-05-17T20:47:22.952Z,12.90
2019-05-17T20:49:49.366Z,12.90
2019-05-17T20:52:15.879Z,12.90
2019-05-17T20:54:43.589Z,12.80
2019-05-17T20:57:10.079Z,12.70
2019-05-17T20:59:36.456Z,12.70
2019-05-17T21:02:03.075Z,12.60
2019-05-17T21:04:30.581Z,12.50
2019-05-17T21:06:57.262Z,12.40
2019-05-17T21:09:23.658Z,12.40
2019-05-17T21:11:50.044Z,12.30
2019-05-17T21:14:16.652Z,12.20
2019-05-17T21:16:43.185Z,12.20
2019-05-17T21:19:09.777Z,12.10
2019-05-17T21:21:37.179Z,12.00
2019-05-17T21:24:03.663Z,11.90
2019-05-17T21:26:30.203Z,11.90
2019-05-17T21:28:56.611Z,11.80
2019-05-17T21:31:23.053Z,11.70
2019-05-17T21:33:49.553Z,11.70
2019-05-17T21:36:15.935Z,11.60
2019-05-17T21:38:43.423Z,11.50
2019-05-17T21:41:09.931Z,11.50
2019-05-17T21:43:36.573Z,11.40
2019-05-17T21:46:04.302Z,11.40
2019-05-17T21:48:31.040Z,11.30
2019-05-17T21:50:57.600Z,11.30
2019-05-17T21:53:24.075Z,11.20
2019-05-17T21:55:50.472Z,11.10
2019-05-17T21:58:20.338Z,11.00
2019-05-17T22:00:51.015Z,11.00
2019-05-17T22:03:17.503Z,10.90
2019-05-17T22:05:44.015Z,10.90
2019-05-17T22:08:10.563Z,10.80
2019-05-17T22:10:37.084Z,10.10
2019-05-17T22:13:03.735Z,10.70
2019-05-17T22:15:30.331Z,10.60
2019-05-17T22:17:57.044Z,10.60
2019-05-17T22:20:23.441Z,10.50
2019-05-17T22:22:49.847Z,10.50
2019-05-17T22:25:16.225Z,10.50
2019-05-17T22:27:42.751Z,10.40
2019-05-17T22:30:09.393Z,10.30
2019-05-17T22:32:36.025Z,10.30
2019-05-17T22:35:04.633Z,10.20
2019-05-17T22:37:31.054Z,10.10
2019-05-17T22:39:57.461Z,10.00
2019-05-17T22:42:23.885Z,10.00
2019-05-17T22:44:51.387Z,10.00
2019-05-17T22:47:17.801Z,10.00
2019-05-17T22:49:44.351Z,9.90
2019-05-17T22:52:10.937Z,9.80
2019-05-17T22:54:37.387Z,9.80
2019-05-17T22:57:05.792Z,9.70
2019-05-17T22:59:32.439Z,9.70
2019-05-17T23:01:58.972Z,10.80
2019-05-17T23:04:25.457Z,10.50
2019-05-17T23:06:51.959Z,9.50
2019-05-17T23:09:18.510Z,9.40
2019-05-17T23:11:44.921Z,9.40
2019-05-17T23:14:11.511Z,9.30
2019-05-17T23:16:50.578Z,9.30
2019-05-17T23:19:07.213Z,9.30
2019-05-17T23:21:35.025Z,9.30
2019-05-17T23:24:01.567Z,9.30
2019-05-17T23:26:28.042Z,9.20
2019-05-17T23:28:54.449Z,9.10
2019-05-17T23:31:20.927Z,9.00
2019-05-17T23:33:47.345Z,9.00
2019-05-17T23:36:13.729Z,8.90
2019-05-17T23:38:40.149Z,8.90
2019-05-17T23:41:06.530Z,8.80
2019-05-17T23:43:33.131Z,8.80
2019-05-17T23:45:59.510Z,8.70
2019-05-17T23:48:25.941Z,8.70
2019-05-17T23:50:52.323Z,8.70
2019-05-17T23:53:18.743Z,8.50
2019-05-17T23:55:45.171Z,8.60
2019-05-17T23:58:11.611Z,8.50
